createdAt,value
2019-05-02T00:00:13.749Z,52.27
2019-05-02T00:02:43.756Z,52.33
2019-05-02T00:05:13.083Z,52.41
2019-05-02T00:07:43.219Z,52.36
2019-05-02T00:10:14.826Z,52.28
2019-05-02T00:12:44.634Z,52.20
2019-05-02T00:15:17.564Z,52.16
2019-05-02T00:17:46.196Z,52.25
2019-05-02T00:20:21.014Z,52.33
2019-05-02T00:22:51.808Z,52.31
2019-05-02T00:25:18.048Z,52.43
2019-05-02T00:27:46.528Z,52.37
2019-05-02T00:30:16.887Z,52.51
2019-05-02T00:32:45.319Z,52.62
2019-05-02T00:35:17.537Z,52.60
2019-05-02T00:37:46.010Z,52.59
2019-05-02T00:40:14.485Z,52.60
2019-05-02T00:42:42.878Z,52.88
2019-05-02T00:45:14.004Z,53.19
2019-05-02T00:47:47.776Z,53.32
2019-05-02T00:50:13.494Z,53.51
2019-05-02T00:52:42.004Z,53.69
2019-05-02T00:55:10.568Z,53.89
2019-05-02T00:57:38.965Z,54.00
2019-05-02T01:00:13.455Z,54.08
2019-05-02T01:02:52.794Z,54.19
2019-05-02T01:05:21.313Z,54.21
2019-05-02T01:07:49.708Z,54.28
2019-05-02T01:10:21.335Z,54.32
2019-05-02T01:12:48.699Z,54.40
2019-05-02T01:15:17.156Z,54.45
2019-05-02T01:17:45.784Z,54.51
2019-05-02T01:20:14.746Z,54.49
2019-05-02T01:22:47.063Z,54.41
2019-05-02T01:25:15.694Z,54.38
2019-05-02T01:27:54.149Z,54.40
2019-05-02T01:30:43.823Z,54.48
2019-05-02T01:33:14.039Z,54.48
2019-05-02T01:36:01.749Z,54.46
2019-05-02T01:38:33.683Z,54.53
2019-05-02T01:41:02.198Z,54.57
2019-05-02T01:43:31.838Z,54.64
2019-05-02T01:46:00.726Z,54.78
2019-05-02T01:48:29.114Z,54.83
2019-05-02T01:50:57.577Z,54.88
2019-05-02T01:53:29.213Z,54.92
2019-05-02T01:55:57.249Z,54.98
2019-05-02T01:58:26.832Z,55.02
2019-05-02T02:00:55.505Z,55.06
2019-05-02T02:03:24.106Z,55.03
2019-05-02T02:05:52.569Z,55.05
2019-05-02T02:08:21.118Z,55.14
2019-05-02T02:10:50.575Z,55.10
2019-05-02T02:13:19.803Z,54.98
2019-05-02T02:15:48.403Z,54.98
2019-05-02T02:18:22.195Z,54.95
2019-05-02T02:20:52.878Z,54.98
2019-05-02T02:23:23.277Z,55.00
2019-05-02T02:26:12.182Z,55.08
2019-05-02T02:29:03.218Z,55.17
2019-05-02T02:31:30.396Z,55.15
2019-05-02T02:33:58.786Z,55.09
2019-05-02T02:39:06.919Z,55.13
2019-05-02T02:44:45.412Z,55.26
2019-05-02T02:49:48.286Z,55.23
2019-05-02T02:52:16.679Z,55.36
2019-05-02T02:54:45.133Z,55.45
2019-05-02T02:57:23.770Z,55.51
2019-05-02T02:59:43.646Z,55.57
2019-05-02T03:02:12.380Z,55.58
2019-05-02T03:05:01.526Z,55.70
2019-05-02T03:07:49.246Z,55.84
2019-05-02T03:10:17.662Z,55.88
2019-05-02T03:13:05.192Z,55.93
2019-05-02T03:20:42.780Z,56.00
2019-05-02T03:23:24.218Z,56.09
2019-05-02T03:26:15.162Z,56.17
2019-05-02T03:29:01.375Z,56.28
2019-05-02T03:31:49.072Z,56.32
2019-05-02T03:37:31.014Z,56.12
2019-05-02T03:40:41.359Z,56.08
2019-05-02T03:43:09.540Z,55.98
2019-05-02T03:48:33.306Z,56.35
2019-05-02T03:51:05.025Z,56.49
2019-05-02T03:54:11.840Z,56.57
2019-05-02T03:57:32.037Z,56.62
2019-05-02T04:00:13.781Z,56.53
2019-05-02T04:06:27.724Z,56.64
2019-05-02T04:09:41.979Z,56.51
2019-05-02T04:12:46.343Z,56.53
2019-05-02T04:15:14.792Z,56.46
2019-05-02T04:18:23.148Z,56.48
2019-05-02T04:21:31.463Z,56.51
2019-05-02T04:24:15.684Z,56.57
2019-05-02T04:27:27.811Z,56.55
2019-05-02T04:32:25.977Z,56.69
2019-05-02T04:34:57.705Z,56.71
2019-05-02T04:37:24.528Z,56.84
2019-05-02T04:39:53.646Z,56.93
2019-05-02T04:45:14.200Z,57.27
2019-05-02T04:47:29.081Z,57.40
2019-05-02T04:49:58.562Z,57.58
2019-05-02T04:55:14.550Z,58.00
2019-05-02T05:00:50.162Z,58.12
2019-05-02T05:05:48.654Z,57.64
2019-05-02T05:08:26.046Z,57.55
2019-05-02T05:13:23.291Z,57.48
2019-05-02T05:15:51.995Z,57.40
2019-05-02T05:18:21.059Z,57.40
2019-05-02T05:20:53.049Z,57.35
2019-05-02T05:31:11.306Z,56.95
2019-05-02T05:33:39.753Z,56.87
2019-05-02T05:36:08.445Z,56.77
2019-05-02T05:38:40.560Z,56.76
2019-05-02T05:41:12.840Z,56.59
2019-05-02T05:44:23.347Z,56.40
2019-05-02T05:46:49.472Z,56.33
2019-05-02T05:49:21.777Z,56.21
2019-05-02T05:51:49.529Z,56.01
2019-05-02T06:02:13.071Z,55.62
2019-05-02T06:04:38.766Z,55.45
2019-05-02T06:10:21.732Z,55.26
2019-05-02T06:12:50.129Z,55.09
2019-05-02T06:15:39.016Z,54.99
2019-05-02T06:18:08.126Z,54.89
2019-05-02T06:20:36.521Z,54.63
2019-05-02T06:25:58.669Z,54.42
2019-05-02T06:28:27.114Z,54.33
2019-05-02T06:30:55.519Z,54.14
2019-05-02T06:33:25.828Z,54.09
2019-05-02T06:38:28.125Z,53.77
2019-05-02T06:41:20.528Z,53.76
2019-05-02T06:43:47.024Z,53.56
2019-05-02T06:46:21.220Z,53.44
2019-05-02T06:48:48.129Z,53.22
2019-05-02T06:51:35.561Z,53.12
2019-05-02T06:59:32.589Z,52.58
2019-05-02T07:02:01.050Z,52.33
2019-05-02T07:07:25.099Z,51.80
2019-05-02T07:10:44.051Z,51.66
2019-05-02T07:13:10.701Z,51.46
2019-05-02T07:15:52.819Z,51.27
2019-05-02T07:18:59.672Z,50.92
2019-05-02T07:24:02.637Z,50.46
2019-05-02T07:26:31.056Z,50.50
2019-05-02T07:28:59.453Z,50.42
2019-05-02T07:31:27.862Z,50.39
2019-05-02T07:33:56.292Z,50.19
2019-05-02T07:36:24.689Z,49.90
2019-05-02T07:38:57.543Z,49.69
2019-05-02T07:43:57.551Z,49.54
2019-05-02T07:46:27.236Z,49.42
2019-05-02T07:48:56.658Z,49.01
2019-05-02T07:51:25.765Z,48.84
2019-05-02T07:53:55.677Z,48.69
2019-05-02T07:56:24.306Z,48.54
2019-05-02T07:59:32.639Z,48.59
2019-05-02T08:02:01.029Z,48.64
2019-05-02T08:04:48.727Z,48.58
2019-05-02T08:07:21.107Z,48.30
2019-05-02T08:09:47.253Z,48.13
2019-05-02T08:12:34.869Z,48.08
2019-05-02T08:18:11.341Z,47.46
2019-05-02T08:20:39.806Z,47.30
2019-05-02T08:23:08.206Z,47.05
2019-05-02T08:25:36.661Z,47.12
2019-05-02T08:28:47.040Z,47.07
2019-05-02T08:34:05.777Z,46.52
2019-05-02T08:36:32.349Z,46.36
2019-05-02T08:39:00.758Z,46.15
2019-05-02T08:41:29.174Z,45.64
2019-05-02T08:46:31.184Z,45.30
2019-05-02T08:48:59.584Z,45.20
2019-05-02T08:51:28.014Z,44.84
2019-05-02T08:53:57.236Z,44.83
2019-05-02T08:56:26.600Z,44.86
2019-05-02T08:58:55.015Z,44.56
2019-05-02T09:01:34.527Z,44.39
2019-05-02T09:03:56.683Z,44.31
2019-05-02T09:06:24.167Z,43.97
2019-05-02T09:08:53.784Z,43.61
2019-05-02T09:11:22.179Z,43.48
2019-05-02T09:13:52.481Z,43.40
2019-05-02T09:16:21.566Z,42.84
2019-05-02T09:18:53.972Z,42.55
2019-05-02T09:21:21.973Z,42.18
2019-05-02T09:23:51.743Z,41.81
2019-05-02T09:26:33.267Z,41.62
2019-05-02T09:28:51.753Z,41.46
2019-05-02T09:31:22.639Z,41.52
2019-05-02T09:33:52.095Z,41.16
2019-05-02T09:36:22.755Z,41.10
2019-05-02T09:38:56.019Z,40.75
2019-05-02T09:41:22.263Z,40.12
2019-05-02T09:46:26.608Z,39.90
2019-05-02T09:48:57.043Z,39.31
2019-05-02T09:51:25.146Z,39.88
2019-05-02T09:54:12.954Z,39.85
2019-05-02T09:56:43.083Z,39.72
2019-05-02T09:59:26.199Z,39.76
2019-05-02T10:02:02.020Z,39.24
2019-05-02T10:04:32.593Z,38.01
2019-05-02T10:07:02.532Z,38.45
2019-05-02T10:12:45.900Z,38.12
2019-05-02T10:15:54.263Z,38.51
2019-05-02T10:18:43.101Z,38.65
2019-05-02T10:21:13.487Z,38.56
2019-05-02T10:29:28.399Z,36.73
2019-05-02T10:31:54.083Z,35.44
2019-05-02T10:34:22.806Z,35.49
2019-05-02T10:36:58.705Z,33.73
2019-05-02T10:39:42.350Z,33.65
2019-05-02T10:42:12.525Z,33.95
2019-05-02T10:44:42.728Z,34.58
2019-05-02T10:47:12.885Z,34.90
2019-05-02T10:52:34.170Z,35.02
2019-05-02T10:55:02.620Z,33.53
2019-05-02T10:57:32.633Z,31.77
2019-05-02T11:06:01.134Z,32.11
2019-05-02T11:08:26.459Z,31.54
2019-05-02T11:11:14.112Z,31.73
2019-05-02T11:14:05.748Z,32.05
2019-05-02T11:16:52.469Z,31.31
2019-05-02T11:19:41.923Z,31.34
2019-05-02T11:22:12.122Z,31.04
2019-05-02T11:24:41.821Z,32.14
2019-05-02T11:27:12.678Z,30.99
2019-05-02T11:29:42.506Z,30.17
2019-05-02T11:32:30.238Z,30.91
2019-05-02T11:34:58.660Z,31.08
2019-05-02T11:37:27.061Z,31.42
2019-05-02T11:39:59.962Z,31.08
2019-05-02T11:42:27.258Z,31.37
2019-05-02T11:44:55.716Z,32.43
2019-05-02T11:47:26.626Z,32.12
2019-05-02T11:49:55.964Z,31.62
2019-05-02T11:52:27.471Z,31.99
2019-05-02T11:54:54.533Z,31.08
2019-05-02T11:57:28.394Z,31.74
2019-05-02T11:59:53.134Z,32.22
2019-05-02T12:03:02.214Z,31.75
2019-05-02T12:05:52.422Z,29.96
2019-05-02T12:11:17.700Z,31.07
2019-05-02T12:13:47.245Z,30.83
2019-05-02T12:16:35.315Z,29.67
2019-05-02T12:22:16.715Z,28.80
2019-05-02T12:24:45.278Z,29.08
2019-05-02T12:27:12.129Z,28.46
2019-05-02T12:32:15.671Z,30.89
2019-05-02T12:35:04.475Z,30.49
2019-05-02T12:37:32.871Z,31.14
2019-05-02T12:40:02.721Z,29.62
2019-05-02T12:42:32.936Z,30.67
2019-05-02T12:45:02.838Z,30.68
2019-05-02T12:47:31.964Z,30.41
2019-05-02T12:50:03.183Z,30.06
2019-05-02T12:52:32.139Z,29.12
2019-05-02T12:55:02.394Z,28.35
2019-05-02T12:57:32.273Z,29.12
2019-05-02T13:00:19.871Z,29.32
2019-05-02T13:03:07.681Z,28.79
2019-05-02T13:05:36.080Z,28.62
2019-05-02T13:08:04.554Z,29.12
2019-05-02T13:10:54.050Z,29.12
2019-05-02T13:32:27.329Z,28.63
2019-05-02T13:35:15.004Z,28.83
2019-05-02T13:38:04.230Z,27.78
2019-05-02T13:48:58.295Z,28.01
2019-05-02T13:51:26.696Z,27.46
2019-05-02T13:57:03.411Z,27.94
2019-05-02T13:59:52.560Z,27.52
2019-05-02T14:03:02.858Z,27.04
2019-05-02T14:05:53.652Z,27.85
2019-05-02T14:08:42.989Z,28.02
2019-05-02T14:11:31.759Z,28.01
2019-05-02T14:16:33.919Z,27.34
2019-05-02T14:19:02.949Z,27.54
2019-05-02T14:21:32.455Z,28.28
2019-05-02T14:24:01.735Z,27.42
2019-05-02T14:26:43.313Z,27.81
2019-05-02T14:29:12.610Z,28.27
2019-05-02T14:31:42.193Z,28.50
2019-05-02T14:34:32.858Z,27.87
2019-05-02T14:37:02.041Z,28.22
2019-05-02T14:39:32.534Z,28.63
2019-05-02T14:42:02.089Z,28.86
2019-05-02T14:44:59.965Z,28.05
2019-05-02T14:47:02.265Z,28.31
2019-05-02T14:49:32.304Z,28.81
2019-05-02T14:52:06.911Z,28.97
2019-05-02T14:54:32.580Z,28.45
2019-05-02T14:57:27.075Z,27.42
2019-05-02T15:08:11.894Z,27.72
2019-05-02T15:10:50.687Z,27.53
2019-05-02T15:13:12.582Z,27.85
2019-05-02T15:15:43.493Z,27.15
2019-05-02T15:18:15.873Z,27.31
2019-05-02T15:20:42.430Z,27.68
2019-05-02T15:23:19.364Z,27.80
2019-05-02T15:25:42.490Z,27.71
2019-05-02T15:31:23.513Z,27.44
2019-05-02T15:34:08.381Z,27.64
2019-05-02T15:41:48.600Z,27.49
2019-05-02T15:44:18.905Z,27.15
2019-05-02T15:54:55.531Z,26.92
2019-05-02T15:57:24.279Z,26.82
2019-05-02T15:59:51.661Z,26.41
2019-05-02T16:05:02.342Z,26.61
2019-05-02T16:10:56.886Z,26.76
2019-05-02T16:13:25.289Z,26.08
2019-05-02T16:15:57.157Z,26.21
2019-05-02T16:18:24.012Z,26.08
2019-05-02T16:26:17.083Z,26.65
2019-05-02T16:28:45.662Z,27.08
2019-05-02T16:36:39.253Z,27.51
2019-05-02T16:39:49.659Z,26.98
2019-05-02T16:42:17.718Z,26.86
2019-05-02T16:44:46.118Z,26.93
2019-05-02T16:48:03.253Z,26.33
2019-05-02T16:56:07.244Z,25.62
2019-05-02T16:58:37.985Z,25.93
2019-05-02T17:01:07.528Z,25.56
2019-05-02T17:09:44.936Z,25.52
2019-05-02T17:15:26.027Z,25.19
2019-05-02T17:17:54.208Z,25.36
2019-05-02T17:20:22.205Z,25.74
2019-05-02T17:26:05.966Z,25.39
2019-05-02T17:31:23.478Z,24.99
2019-05-02T17:33:54.413Z,24.62
2019-05-02T17:36:28.527Z,24.84
2019-05-02T17:38:54.426Z,24.62
2019-05-02T17:41:22.691Z,24.87
2019-05-02T17:43:51.084Z,24.63
2019-05-02T17:46:21.940Z,24.74
2019-05-02T17:48:52.742Z,25.34
2019-05-02T17:54:09.020Z,26.24
2019-05-02T17:56:57.530Z,26.78
2019-05-02T17:59:28.222Z,27.22
2019-05-02T18:01:56.801Z,27.95
2019-05-02T18:04:25.262Z,28.50
2019-05-02T18:09:47.104Z,29.42
2019-05-02T18:12:59.633Z,29.67
2019-05-02T18:15:29.829Z,29.93
2019-05-02T18:17:59.750Z,30.35
2019-05-02T18:20:26.271Z,30.79
2019-05-02T18:22:54.664Z,31.20
2019-05-02T18:25:25.231Z,31.51
2019-05-02T18:30:27.771Z,31.87
2019-05-02T18:32:57.725Z,32.06
2019-05-02T18:35:46.986Z,32.31
2019-05-02T18:40:51.753Z,32.77
2019-05-02T18:45:58.185Z,33.36
2019-05-02T18:48:24.066Z,33.95
2019-05-02T18:50:52.783Z,34.41
2019-05-02T18:58:53.468Z,35.79
2019-05-02T19:01:42.704Z,36.14
2019-05-02T19:04:13.100Z,36.37
2019-05-02T19:06:42.044Z,36.56
2019-05-02T19:09:53.900Z,37.04
2019-05-02T19:12:25.783Z,37.40
2019-05-02T19:14:52.786Z,37.75
2019-05-02T19:19:56.554Z,38.31
2019-05-02T19:22:24.983Z,38.62
2019-05-02T19:24:53.379Z,38.78
2019-05-02T19:27:42.935Z,38.92
2019-05-02T19:33:23.404Z,39.11
2019-05-02T19:36:10.920Z,39.11
2019-05-02T19:41:13.153Z,39.75
2019-05-02T19:43:49.345Z,40.48
2019-05-02T19:46:34.729Z,40.73
2019-05-02T19:49:02.094Z,41.12
2019-05-02T19:54:26.190Z,42.71
2019-05-02T19:56:54.626Z,43.92
2019-05-02T20:00:06.508Z,45.92
2019-05-02T20:02:37.383Z,47.42
2019-05-02T20:10:32.281Z,49.13
2019-05-02T20:13:03.111Z,49.87
2019-05-02T20:18:21.193Z,51.51
2019-05-02T20:21:29.520Z,52.06
2019-05-02T20:26:32.597Z,53.57
2019-05-02T20:31:36.476Z,55.96
2019-05-02T20:34:44.918Z,56.35
2019-05-02T20:37:13.316Z,57.01
2019-05-02T20:39:41.770Z,57.59
2019-05-02T20:42:11.984Z,58.70
2019-05-02T20:44:41.839Z,59.63
2019-05-02T20:47:52.389Z,60.31
2019-05-02T20:53:12.733Z,60.41
2019-05-02T20:55:41.674Z,61.17
2019-05-02T20:58:10.341Z,62.00
2019-05-02T21:03:33.356Z,63.29
2019-05-02T21:09:52.359Z,63.53
2019-05-02T21:18:02.438Z,63.37
2019-05-02T21:20:32.633Z,63.94
2019-05-02T21:23:02.620Z,64.32
2019-05-02T21:26:11.152Z,64.44
2019-05-02T21:28:39.553Z,64.34
2019-05-02T21:31:27.290Z,64.05
2019-05-02T21:33:55.684Z,64.23
2019-05-02T21:36:43.506Z,64.31
2019-05-02T21:39:52.141Z,64.54
2019-05-02T21:42:22.613Z,64.50
2019-05-02T21:44:52.144Z,64.33
2019-05-02T21:47:22.329Z,64.48
2019-05-02T21:53:08.105Z,64.66
2019-05-02T21:55:55.610Z,64.84
2019-05-02T21:58:24.029Z,64.94
2019-05-02T22:01:32.903Z,64.91
2019-05-02T22:04:02.484Z,64.64
2019-05-02T22:09:39.009Z,65.15
2019-05-02T22:12:26.594Z,65.11
2019-05-02T22:17:29.419Z,65.47
2019-05-02T22:19:57.840Z,65.66
2019-05-02T22:22:26.273Z,66.08
2019-05-02T22:24:54.668Z,65.73
2019-05-02T22:29:57.100Z,65.86
2019-05-02T22:35:01.866Z,65.69
2019-05-02T22:40:44.342Z,65.54
2019-05-02T22:45:46.982Z,64.96
2019-05-02T22:48:15.372Z,65.38
2019-05-02T22:50:43.764Z,65.73
2019-05-02T22:55:45.784Z,66.41
2019-05-02T22:58:14.182Z,66.45
2019-05-02T23:00:42.669Z,66.64
2019-05-02T23:03:12.555Z,66.65
2019-05-02T23:05:42.129Z,66.57
2019-05-02T23:08:30.532Z,66.37
2019-05-02T23:10:58.937Z,66.30
2019-05-02T23:13:27.322Z,66.03
2019-05-02T23:18:31.841Z,66.15
2019-05-02T23:23:33.623Z,66.59
2019-05-02T23:28:59.871Z,66.48
2019-05-02T23:31:47.458Z,66.35
2019-05-02T23:34:15.890Z,66.68
2019-05-02T23:37:03.614Z,66.96
2019-05-02T23:42:06.548Z,67.18
2019-05-02T23:47:09.064Z,67.49
2019-05-02T23:52:11.796Z,68.02
2019-05-02T23:54:49.911Z,68.03
2019-05-02T23:57:12.125Z,67.98
2019-05-02T23:59:42.413Z,67.98
